»·PEaware :: AAL1091 KDFW-KORD

AAL1091 :: KDFW-KORD

FLIGHT INFORMATION

Flight Status: Arrived
Operator:
American Airlines
More flights by this operator :: More flights under this callsign
Pilot: Drew L. (13237)
Aircraft: BOEING 767-300
(B763)
More flights by this aircraft type
Origin: KDFW Dallas-Ft Worth Intl
United States
Destination: KORD Chicago-O'Hare Intl
United States
More flights between these airports :: More routes between these airports
Route: AKUNA6 MLC SGF J105 WELTS TRTLL4
File this flight plan on PilotEdge
Remarks: Sample flight plan
Altitude:
(Current/Filed)
39,000ft
Speed:
(Current/Filed)
115kts
Departed: 23-May-17 03:29 PM
Arrived: 23-May-17 05:23 PM
Distance/Time
Traveled:
695nm/1:53
Distance/Time
To Go:
Arrived

Flight Plot

Page will automatically refresh every two minutes.

Flight plan parsing failed; only flown route is shown


Map Options




Map Legend


Flown Route
Filed Route
Departure Airport
Arrival Airport
Navaid (VOR, NDB)
Fix

Horizontal Profiles

Position Reports

Time Latitude Longitude Heading Altitude Ground
Speed
23-May-17 15:26 32.901099 -97.044426 271 617ft 3kts
23-May-17 15:27 32.899424 -97.047659 180 617ft 16kts
23-May-17 15:28 32.891769 -97.047689 180 617ft 33kts
23-May-17 15:29 32.882594 -97.048090 179 617ft 30kts
23-May-17 15:30 32.879477 -97.050946 352 617ft 12kts
23-May-17 15:31 32.909117 -97.050577 356 1395ft 217kts
23-May-17 15:32 32.974520 -97.051908 356 5786ft 245kts
23-May-17 15:33 33.043348 -97.052817 354 10231ft 260kts
23-May-17 15:34 33.120271 -97.060544 348 12828ft 329kts
23-May-17 15:35 33.209072 -97.020763 27 16822ft 374kts
23-May-17 15:36 33.296069 -96.949643 27 20506ft 392kts
23-May-17 15:37 33.387676 -96.874780 27 23714ft 410kts
23-May-17 15:38 33.484837 -96.800262 19 26310ft 424kts
23-May-17 15:39 33.591341 -96.732980 19 28679ft 445kts
23-May-17 15:40 33.702752 -96.661436 19 30766ft 466kts
23-May-17 15:41 33.818036 -96.587067 18 32943ft 477kts
23-May-17 15:42 33.934527 -96.511698 17 35276ft 475kts
23-May-17 15:43 34.049835 -96.436889 17 37262ft 471kts
23-May-17 15:44 34.158567 -96.351085 22 38677ft 479kts
23-May-17 15:45 34.267835 -96.261952 23 38933ft 478kts
23-May-17 15:46 34.377053 -96.172537 23 38939ft 477kts
23-May-17 15:47 34.486563 -96.082555 23 38937ft 475kts
23-May-17 15:48 34.595421 -95.992849 23 38940ft 476kts
23-May-17 15:49 34.704290 -95.902822 23 38940ft 473kts
23-May-17 15:50 34.794401 -95.828093 23 38942ft 473kts
23-May-17 15:51 34.918577 -95.717573 27 38943ft 478kts
23-May-17 15:52 35.005845 -95.635399 27 38939ft 475kts
23-May-17 15:53 35.107621 -95.539386 27 39000ft 476kts
23-May-17 15:54 35.228692 -95.424769 27 38977ft 475kts
23-May-17 15:55 35.313867 -95.343843 27 38998ft 472kts
23-May-17 15:56 35.417049 -95.245549 28 38983ft 474kts
23-May-17 15:57 35.520141 -95.146994 28 38884ft 471kts
23-May-17 15:58 35.639995 -95.031999 28 38882ft 470kts
23-May-17 15:59 35.742829 -94.932985 28 38886ft 470kts
23-May-17 16:00 35.828090 -94.850631 28 38885ft 469kts
23-May-17 16:01 35.930025 -94.751860 28 38855ft 467kts
23-May-17 16:02 36.049149 -94.636024 28 38860ft 467kts
23-May-17 16:03 36.132758 -94.554451 28 38871ft 467kts
23-May-17 16:04 36.233285 -94.456044 28 38866ft 461kts
23-May-17 16:05 36.333538 -94.357607 28 38868ft 461kts
23-May-17 16:06 36.432650 -94.259957 29 38857ft 462kts
23-May-17 16:07 36.532769 -94.160968 29 38857ft 461kts
23-May-17 16:08 36.632219 -94.062306 29 38856ft 460kts
23-May-17 16:09 36.732001 -93.962989 29 38857ft 460kts
23-May-17 16:10 36.831293 -93.863807 29 38856ft 458kts
23-May-17 16:11 36.930421 -93.764454 29 38833ft 458kts
23-May-17 16:12 37.028577 -93.665874 34 38816ft 444kts
23-May-17 16:13 37.123625 -93.569847 34 38841ft 447kts
23-May-17 16:14 37.220015 -93.472243 34 38836ft 446kts
23-May-17 16:15 37.316068 -93.374662 34 38836ft 446kts
23-May-17 16:16 37.413221 -93.281281 31 38833ft 445kts
23-May-17 16:17 37.512697 -93.189568 31 38831ft 445kts
23-May-17 16:18 37.612302 -93.097365 32 38830ft 446kts
23-May-17 16:19 37.711709 -93.005036 32 38831ft 445kts
23-May-17 16:20 37.811209 -92.912298 32 38830ft 446kts
23-May-17 16:21 37.910740 -92.819213 32 38829ft 446kts
23-May-17 16:22 38.009570 -92.726465 32 38829ft 446kts
23-May-17 16:23 38.106971 -92.634755 32 38857ft 446kts
23-May-17 16:24 38.205661 -92.541527 32 38863ft 446kts
23-May-17 16:25 38.304990 -92.447359 32 38809ft 445kts
23-May-17 16:26 38.403788 -92.353370 32 38808ft 446kts
23-May-17 16:27 38.501821 -92.259781 32 38804ft 446kts
23-May-17 16:28 38.600904 -92.164910 32 38797ft 449kts
23-May-17 16:29 38.700588 -92.069003 32 38801ft 450kts
23-May-17 16:30 38.800294 -91.972796 32 38803ft 450kts
23-May-17 16:31 38.899915 -91.876316 32 38802ft 450kts
23-May-17 16:32 38.998762 -91.778987 37 38796ft 453kts
23-May-17 16:33 39.081797 -91.655378 45 38801ft 459kts
23-May-17 16:34 39.162531 -91.529680 45 38809ft 458kts
23-May-17 16:35 39.243061 -91.403583 45 38810ft 458kts
23-May-17 16:36 39.323071 -91.277779 46 38806ft 458kts
23-May-17 16:37 39.403521 -91.150778 46 38780ft 459kts
23-May-17 16:38 39.483906 -91.023366 46 38778ft 460kts
23-May-17 16:39 39.564142 -90.895627 46 38801ft 458kts
23-May-17 16:40 39.644240 -90.767606 46 38804ft 458kts
23-May-17 16:41 39.724382 -90.638958 46 38804ft 459kts
23-May-17 16:42 39.803967 -90.510678 46 38778ft 459kts
23-May-17 16:43 39.883894 -90.381313 46 38777ft 459kts
23-May-17 16:44 39.956808 -90.264471 41 38768ft 456kts
23-May-17 16:45 40.050993 -90.156312 36 38773ft 453kts
23-May-17 16:46 40.142115 -90.053557 35 38469ft 424kts
23-May-17 16:47 40.236976 -89.946714 42 36707ft 482kts
23-May-17 16:48 40.334312 -89.836193 45 36099ft 442kts
23-May-17 16:49 40.423002 -89.735130 44 35274ft 409kts
23-May-17 16:50 40.507338 -89.638553 38 33404ft 402kts
23-May-17 16:51 40.591746 -89.541995 40 31097ft 405kts
23-May-17 16:52 40.676576 -89.444386 40 28655ft 409kts
23-May-17 16:53 40.760051 -89.347269 41 26748ft 400kts
23-May-17 16:54 40.834240 -89.258860 41 25040ft 392kts
23-May-17 16:55 40.913921 -89.163620 41 23252ft 384kts
23-May-17 16:56 40.991856 -89.070154 41 21566ft 374kts
23-May-17 16:57 41.067401 -88.979255 41 19932ft 364kts
23-May-17 16:58 41.139240 -88.892541 41 18377ft 356kts
23-May-17 16:59 41.211340 -88.805239 41 16828ft 347kts
23-May-17 17:00 41.281702 -88.719840 41 15318ft 340kts
23-May-17 17:01 41.350359 -88.636259 41 13850ft 332kts
23-May-17 17:02 41.418189 -88.555122 40 12413ft 325kts
23-May-17 17:03 41.484980 -88.475716 40 11050ft 317kts
23-May-17 17:04 41.550404 -88.397712 40 10788ft 318kts
23-May-17 17:05 41.613982 -88.321696 40 10778ft 317kts
23-May-17 17:06 41.679759 -88.243461 40 10777ft 317kts
23-May-17 17:07 41.745141 -88.165487 40 10777ft 317kts
23-May-17 17:08 41.810145 -88.087337 42 10776ft 317kts
23-May-17 17:09 41.870648 -88.004876 53 10769ft 319kts
23-May-17 17:10 41.884264 -87.887540 86 10778ft 327kts
23-May-17 17:11 41.884292 -87.769516 86 9764ft 318kts
23-May-17 17:12 41.884137 -87.651427 86 8361ft 316kts
23-May-17 17:13 41.883831 -87.543222 85 6928ft 264kts
23-May-17 17:14 41.884535 -87.479852 76 5612ft 240kts
23-May-17 17:15 41.911711 -87.416756 10 4535ft 206kts
23-May-17 17:16 41.963422 -87.446531 309 4036ft 213kts
23-May-17 17:17 41.966767 -87.528331 270 3621ft 221kts
23-May-17 17:18 41.967666 -87.608621 271 3119ft 208kts
23-May-17 17:19 41.966807 -87.683100 267 2750ft 188kts
23-May-17 17:20 41.965884 -87.743354 269 2531ft 139kts
23-May-17 17:21 41.965778 -87.795076 269 2107ft 140kts
23-May-17 17:22 41.965772 -87.820021 271 1762ft 141kts
23-May-17 17:23 41.965777 -87.850245 268 1322ft 141kts
23-May-17 17:24 41.965740 -87.902234 268 680ft 126kts
23-May-17 17:25 41.965758 -87.919917 278 679ft 0kts

Navigation Log

Ident Type
Flight plan parsing failed, navigation log unavailable